createdAt,value
2023-02-05T00:02:26.587Z,7.28
2023-02-05T00:04:54.634Z,8.50
2023-02-05T00:07:22.680Z,4.80
2023-02-05T00:09:52.104Z,3.38
2023-02-05T00:12:20.161Z,7.00
2023-02-05T00:14:48.187Z,5.45
2023-02-05T00:17:16.265Z,8.20
2023-02-05T00:19:44.313Z,6.22
2023-02-05T00:22:12.445Z,6.55
2023-02-05T00:24:40.638Z,4.53
2023-02-05T00:27:10.575Z,5.93
2023-02-05T00:29:38.706Z,3.70
2023-02-05T00:32:06.758Z,2.53
2023-02-05T00:34:34.754Z,7.47
2023-02-05T00:37:02.846Z,9.05
2023-02-05T00:39:30.920Z,4.50
2023-02-05T00:41:58.955Z,6.63
2023-02-05T00:44:28.410Z,3.90
2023-02-05T00:49:24.241Z,7.45
2023-02-05T00:51:52.335Z,7.07
2023-02-05T00:54:20.357Z,3.47
2023-02-05T00:56:48.473Z,3.58
2023-02-05T00:59:16.592Z,5.75
2023-02-05T01:01:46.100Z,3.80
2023-02-05T01:04:14.244Z,5.90
2023-02-05T01:06:42.302Z,2.88
2023-02-05T01:09:10.394Z,5.35
2023-02-05T01:11:38.453Z,3.58
2023-02-05T01:14:06.525Z,4.47
2023-02-05T01:16:34.585Z,4.80
2023-02-05T01:19:04.053Z,5.63
2023-02-05T01:24:01.565Z,10.13
2023-02-05T01:26:29.625Z,3.63
2023-02-05T01:28:57.670Z,2.90
2023-02-05T01:31:28.177Z,4.63
2023-02-05T01:33:56.777Z,3.95
2023-02-05T01:36:26.509Z,7.17
2023-02-05T01:38:54.554Z,5.35
2023-02-05T01:41:22.800Z,4.78
2023-02-05T01:44:09.985Z,4.72
2023-02-05T01:46:40.148Z,4.35
2023-02-05T01:49:11.733Z,6.07
2023-02-05T01:51:41.717Z,3.60
2023-02-05T01:54:10.141Z,5.00
2023-02-05T01:56:41.624Z,4.32
2023-02-05T01:59:13.050Z,6.88
2023-02-05T02:01:43.050Z,4.25
2023-02-05T02:04:12.927Z,5.60
2023-02-05T02:06:42.807Z,3.55
2023-02-05T02:09:12.223Z,3.70
2023-02-05T02:14:14.014Z,6.78
2023-02-05T02:16:42.452Z,5.95
2023-02-05T02:19:17.737Z,2.53
2023-02-05T02:22:20.408Z,4.40
2023-02-05T02:25:21.205Z,2.85
2023-02-05T02:27:54.352Z,4.05
2023-02-05T02:30:27.566Z,3.50
2023-02-05T02:33:05.582Z,4.68
2023-02-05T02:35:39.476Z,4.90
2023-02-05T02:38:13.513Z,5.55
2023-02-05T02:40:45.187Z,5.25
2023-02-05T02:43:18.115Z,3.60
2023-02-05T02:45:52.575Z,2.80
2023-02-05T02:48:25.234Z,3.30
2023-02-05T02:50:56.452Z,2.15
2023-02-05T02:53:27.976Z,3.35
2023-02-05T02:55:57.903Z,3.00
2023-02-05T02:58:32.867Z,3.55
2023-02-05T03:01:04.612Z,2.40
2023-02-05T03:03:34.056Z,4.75
2023-02-05T03:08:36.549Z,4.20
2023-02-05T03:11:09.895Z,4.93
2023-02-05T03:13:39.415Z,2.90
2023-02-05T03:16:08.239Z,2.75
2023-02-05T03:18:36.871Z,8.07
2023-02-05T03:21:13.757Z,4.45
2023-02-05T03:23:41.954Z,4.28
2023-02-05T03:26:24.894Z,2.92
2023-02-05T03:28:54.768Z,4.43
2023-02-05T03:31:26.529Z,3.13
2023-02-05T03:34:07.598Z,3.60
2023-02-05T03:36:43.772Z,3.40
2023-02-05T03:39:25.911Z,4.30
2023-02-05T03:42:03.260Z,4.72
2023-02-05T03:44:50.776Z,2.33
2023-02-05T03:47:31.620Z,4.18
2023-02-05T03:50:08.475Z,3.22
2023-02-05T03:52:43.113Z,4.03
2023-02-05T03:55:16.634Z,3.38
2023-02-05T03:57:50.009Z,2.47
2023-02-05T04:00:19.724Z,2.53
2023-02-05T04:02:48.069Z,5.68
2023-02-05T04:05:16.270Z,4.10
2023-02-05T04:07:44.556Z,4.05
2023-02-05T04:10:12.594Z,2.67
2023-02-05T04:12:40.657Z,5.00
2023-02-05T04:15:10.781Z,3.25
2023-02-05T04:17:40.613Z,4.25
2023-02-05T04:20:10.191Z,5.60
2023-02-05T04:22:38.219Z,2.28
2023-02-05T04:25:06.927Z,4.55
2023-02-05T04:27:35.003Z,6.13
2023-02-05T04:30:03.102Z,4.38
2023-02-05T04:32:31.170Z,4.25
2023-02-05T04:35:00.578Z,3.92
2023-02-05T04:39:56.474Z,3.33
2023-02-05T04:42:24.571Z,6.43
2023-02-05T04:44:54.246Z,2.65
2023-02-05T04:47:22.485Z,3.33
2023-02-05T04:49:50.579Z,3.42
2023-02-05T04:52:20.004Z,4.22
2023-02-05T04:57:16.083Z,4.13
2023-02-05T04:59:44.096Z,3.65
2023-02-05T05:02:12.132Z,6.07
2023-02-05T05:04:43.067Z,3.55
2023-02-05T05:07:11.300Z,2.60
2023-02-05T05:09:40.957Z,4.07
2023-02-05T05:12:09.373Z,3.47
2023-02-05T05:14:38.691Z,3.67
2023-02-05T05:19:34.778Z,3.75
2023-02-05T05:22:02.821Z,4.53
2023-02-05T05:24:31.048Z,4.07
2023-02-05T05:27:01.169Z,6.75
2023-02-05T05:29:29.283Z,5.25
2023-02-05T05:31:57.298Z,3.90
2023-02-05T05:34:25.350Z,5.60
2023-02-05T05:36:53.698Z,5.35
2023-02-05T05:39:39.944Z,4.67
2023-02-05T05:42:29.913Z,3.45
2023-02-05T05:44:57.969Z,8.05
2023-02-05T05:47:26.190Z,5.38
2023-02-05T05:49:54.865Z,5.13
2023-02-05T05:52:22.897Z,5.45
2023-02-05T05:54:50.942Z,7.55
2023-02-05T05:57:21.005Z,9.57
2023-02-05T05:59:49.135Z,8.88
2023-02-05T06:02:17.282Z,12.25
2023-02-05T06:04:45.798Z,7.70
2023-02-05T06:07:13.927Z,7.68
2023-02-05T06:09:41.983Z,8.38
2023-02-05T06:12:11.653Z,6.20
2023-02-05T06:14:41.321Z,6.45
2023-02-05T06:17:09.349Z,5.20
2023-02-05T06:19:37.454Z,6.57
2023-02-05T06:22:05.522Z,7.07
2023-02-05T06:24:33.563Z,7.20
2023-02-05T06:27:01.854Z,8.15
2023-02-05T06:29:29.943Z,6.25
2023-02-05T06:31:59.365Z,18.88
2023-02-05T06:34:27.486Z,8.73
2023-02-05T06:36:55.769Z,19.90
2023-02-05T06:39:25.249Z,23.05
2023-02-05T06:41:53.439Z,24.05
2023-02-05T06:44:21.729Z,23.08
2023-02-05T06:46:49.796Z,21.52
2023-02-05T06:49:19.378Z,22.48
2023-02-05T06:51:47.464Z,30.98
2023-02-05T06:54:15.755Z,24.70
2023-02-05T06:56:43.893Z,19.92
2023-02-05T06:59:12.276Z,25.80
2023-02-05T07:01:40.376Z,36.07
2023-02-05T07:04:08.493Z,55.05
2023-02-05T07:06:37.962Z,68.80
2023-02-05T07:09:06.047Z,84.07
2023-02-05T07:11:34.170Z,82.60
2023-02-05T07:14:02.857Z,122.38
2023-02-05T07:16:31.733Z,135.93
2023-02-05T07:19:00.085Z,159.02
2023-02-05T07:21:28.230Z,174.43
2023-02-05T07:23:57.688Z,130.48
2023-02-05T07:26:25.835Z,130.05
2023-02-05T07:28:53.966Z,114.35
2023-02-05T07:31:22.195Z,100.47
2023-02-05T07:33:50.312Z,59.90
2023-02-05T07:36:19.383Z,43.08
2023-02-05T07:38:49.617Z,28.88
2023-02-05T07:41:19.544Z,17.42
2023-02-05T07:43:51.398Z,12.32
2023-02-05T07:46:21.466Z,9.07
2023-02-05T07:48:49.968Z,7.50
2023-02-05T07:51:20.205Z,5.93
2023-02-05T07:53:48.916Z,6.63
2023-02-05T07:56:21.607Z,7.22
2023-02-05T07:58:49.826Z,6.38
2023-02-05T08:01:18.201Z,4.05
2023-02-05T08:03:46.263Z,5.30
2023-02-05T08:06:16.848Z,5.13
2023-02-05T08:08:45.111Z,5.53
2023-02-05T08:11:16.382Z,5.55
2023-02-05T08:13:46.526Z,6.38
2023-02-05T08:16:16.052Z,4.85
2023-02-05T08:18:44.485Z,5.15
2023-02-05T08:21:12.586Z,5.45
2023-02-05T08:23:40.649Z,4.88
2023-02-05T08:26:08.727Z,12.57
2023-02-05T08:28:36.801Z,9.90
2023-02-05T08:31:12.737Z,5.38
2023-02-05T08:33:41.208Z,4.70
2023-02-05T08:36:09.851Z,6.40
2023-02-05T08:38:37.941Z,6.20
2023-02-05T08:41:12.371Z,7.15
2023-02-05T08:43:42.651Z,4.70
2023-02-05T08:46:13.858Z,3.65
2023-02-05T08:48:42.273Z,4.20
2023-02-05T08:51:11.175Z,4.95
2023-02-05T08:53:40.221Z,2.42
2023-02-05T08:56:10.553Z,4.50
2023-02-05T08:58:39.049Z,4.85
2023-02-05T09:01:09.051Z,2.87
2023-02-05T09:03:39.034Z,5.10
2023-02-05T09:06:08.141Z,3.65
2023-02-05T09:08:36.421Z,2.38
2023-02-05T09:11:05.147Z,2.58
2023-02-05T09:13:33.724Z,3.63
2023-02-05T09:16:01.968Z,4.05
2023-02-05T09:18:30.094Z,4.13
2023-02-05T09:20:59.544Z,6.57
2023-02-05T09:23:27.676Z,4.82
2023-02-05T09:25:55.744Z,4.05
2023-02-05T09:28:23.772Z,4.13
2023-02-05T09:30:51.945Z,4.10
2023-02-05T09:33:20.195Z,5.38
2023-02-05T09:35:48.245Z,5.30
2023-02-05T09:38:18.682Z,3.15
2023-02-05T09:40:56.969Z,4.95
2023-02-05T09:43:39.790Z,6.68
2023-02-05T09:46:15.104Z,4.47
2023-02-05T09:48:50.426Z,4.55
2023-02-05T09:51:24.092Z,4.03
2023-02-05T09:53:58.384Z,6.43
2023-02-05T09:56:29.029Z,6.53
2023-02-05T09:58:59.085Z,4.70
2023-02-05T10:01:37.412Z,5.28
2023-02-05T10:04:07.881Z,5.50
2023-02-05T10:07:17.749Z,6.20
2023-02-05T10:10:22.554Z,5.55
2023-02-05T10:13:21.307Z,3.92
2023-02-05T10:16:04.287Z,8.73
2023-02-05T10:18:42.374Z,4.65
2023-02-05T10:21:26.984Z,5.38
2023-02-05T10:24:17.577Z,3.95
2023-02-05T10:26:50.487Z,6.22
2023-02-05T10:29:28.536Z,4.80
2023-02-05T10:32:15.813Z,9.63
2023-02-05T10:34:53.694Z,5.03
2023-02-05T10:37:32.152Z,6.10
2023-02-05T10:40:01.122Z,5.85
2023-02-05T10:42:34.776Z,4.47
2023-02-05T10:45:16.435Z,5.40
2023-02-05T10:48:04.980Z,5.22
2023-02-05T10:50:46.510Z,7.05
2023-02-05T10:53:18.057Z,4.85
2023-02-05T10:55:46.174Z,5.20
2023-02-05T10:58:29.555Z,4.97
2023-02-05T11:00:59.836Z,3.58
2023-02-05T11:03:28.036Z,4.97
2023-02-05T11:05:58.822Z,4.05
2023-02-05T11:08:35.977Z,3.38
2023-02-05T11:11:05.211Z,3.58
2023-02-05T11:13:34.498Z,4.07
2023-02-05T11:16:06.581Z,4.57
2023-02-05T11:18:39.901Z,4.53
2023-02-05T11:21:09.881Z,4.43
2023-02-05T11:23:40.956Z,3.83
2023-02-05T11:26:11.677Z,3.22
2023-02-05T11:28:40.768Z,3.45
2023-02-05T11:31:26.442Z,4.65
2023-02-05T11:34:11.708Z,2.70
2023-02-05T11:36:49.015Z,4.85
2023-02-05T11:39:30.664Z,4.40
2023-02-05T11:41:58.849Z,5.72
2023-02-05T11:44:30.392Z,5.50
2023-02-05T11:47:03.089Z,5.63
2023-02-05T11:49:35.901Z,3.63
2023-02-05T11:52:10.726Z,4.95
2023-02-05T11:54:40.281Z,3.45
2023-02-05T11:59:37.817Z,5.72
2023-02-05T12:02:32.022Z,7.20
2023-02-05T12:05:06.290Z,3.53
2023-02-05T12:07:39.860Z,4.15
2023-02-05T12:10:17.582Z,4.28
2023-02-05T12:12:53.264Z,3.65
2023-02-05T12:15:25.781Z,4.45
2023-02-05T12:18:03.962Z,9.10
2023-02-05T12:20:37.519Z,3.47
2023-02-05T12:23:31.289Z,3.78
2023-02-05T12:26:26.703Z,3.40
2023-02-05T12:29:07.801Z,2.88
2023-02-05T12:31:49.181Z,2.30
2023-02-05T12:34:29.414Z,2.67
2023-02-05T12:37:12.216Z,79.18
2023-02-05T12:39:46.055Z,2.70
2023-02-05T12:42:27.154Z,3.67
2023-02-05T12:45:08.687Z,5.32
2023-02-05T12:47:54.309Z,5.05
2023-02-05T12:50:41.522Z,4.28
2023-02-05T12:53:26.939Z,4.88
2023-02-05T12:56:17.284Z,2.92
2023-02-05T12:58:49.968Z,3.65
2023-02-05T13:01:23.157Z,3.22
2023-02-05T13:03:55.160Z,2.17
2023-02-05T13:06:28.875Z,4.15
2023-02-05T13:09:02.643Z,2.35
2023-02-05T13:11:35.108Z,2.50
2023-02-05T13:14:08.843Z,2.67
2023-02-05T13:16:42.156Z,3.35
2023-02-05T13:19:19.152Z,4.65
2023-02-05T13:22:07.264Z,2.70
2023-02-05T13:24:57.457Z,2.60
2023-02-05T13:27:47.601Z,2.83
2023-02-05T13:30:20.682Z,3.95
2023-02-05T13:32:51.719Z,3.47
2023-02-05T13:35:20.298Z,3.13
2023-02-05T13:38:10.871Z,4.38
2023-02-05T13:40:56.299Z,5.30
2023-02-05T13:43:43.213Z,3.15
2023-02-05T13:46:39.304Z,3.00
2023-02-05T13:49:39.291Z,2.95
2023-02-05T13:52:25.208Z,2.38
2023-02-05T13:55:26.814Z,1.98
2023-02-05T13:58:14.488Z,2.70
2023-02-05T14:00:45.106Z,3.10
2023-02-05T14:03:35.048Z,2.78
2023-02-05T14:06:22.538Z,3.58
2023-02-05T14:08:52.126Z,2.95
2023-02-05T14:11:23.660Z,4.82
2023-02-05T14:14:24.919Z,3.92
2023-02-05T14:16:54.923Z,2.35
2023-02-05T14:19:26.614Z,3.28
2023-02-05T14:22:01.575Z,1.92
2023-02-05T14:24:54.885Z,2.17
2023-02-05T14:27:55.286Z,3.22
2023-02-05T14:30:47.578Z,3.03
2023-02-05T14:33:34.073Z,2.33
2023-02-05T14:36:35.591Z,2.92
2023-02-05T14:39:22.600Z,2.80
2023-02-05T14:41:55.060Z,1.63
2023-02-05T14:44:28.292Z,2.65
2023-02-05T14:47:03.007Z,7.20
2023-02-05T14:49:37.874Z,4.15
2023-02-05T14:52:09.285Z,3.33
2023-02-05T14:54:46.445Z,2.35
2023-02-05T14:57:21.833Z,2.67
2023-02-05T14:59:57.296Z,2.97
2023-02-05T15:02:50.724Z,6.32
2023-02-05T15:05:25.662Z,3.30
2023-02-05T15:08:01.388Z,3.28
2023-02-05T15:10:36.600Z,2.50
2023-02-05T15:13:11.604Z,2.67
2023-02-05T15:15:41.148Z,2.90
2023-02-05T15:20:47.826Z,3.92
2023-02-05T15:23:23.465Z,3.30
2023-02-05T15:25:59.028Z,2.80
2023-02-05T15:28:32.420Z,4.57
2023-02-05T15:31:21.988Z,4.10
2023-02-05T15:33:57.566Z,4.55
2023-02-05T15:36:32.678Z,7.00
2023-02-05T15:39:16.751Z,4.22
2023-02-05T15:41:46.566Z,4.25
2023-02-05T15:44:27.769Z,2.55
2023-02-05T15:46:58.660Z,5.07
2023-02-05T15:49:32.283Z,4.32
2023-02-05T15:52:01.738Z,11.32
2023-02-05T15:54:31.753Z,7.72
2023-02-05T15:57:00.096Z,9.20
2023-02-05T15:59:30.449Z,8.48
2023-02-05T16:02:06.220Z,9.85
2023-02-05T16:04:37.246Z,8.13
2023-02-05T16:07:19.149Z,11.05
2023-02-05T16:09:49.239Z,8.00
2023-02-05T16:12:17.850Z,9.48
2023-02-05T16:14:46.087Z,7.23
2023-02-05T16:17:20.618Z,7.40
2023-02-05T16:19:52.295Z,8.57
2023-02-05T16:22:30.322Z,8.75
2023-02-05T16:25:02.280Z,33.70
2023-02-05T16:27:36.041Z,48.30
2023-02-05T16:30:08.202Z,44.58
2023-02-05T16:32:42.377Z,26.27
2023-02-05T16:35:23.192Z,34.03
2023-02-05T16:37:52.736Z,27.77
2023-02-05T16:42:58.532Z,24.10
2023-02-05T16:45:29.068Z,19.15
2023-02-05T16:48:22.914Z,10.27
2023-02-05T16:50:51.731Z,14.80
2023-02-05T16:53:24.991Z,25.20
2023-02-05T16:55:59.179Z,33.10
2023-02-05T16:58:32.370Z,23.17
2023-02-05T17:01:04.043Z,22.38
2023-02-05T17:03:37.648Z,17.67
2023-02-05T17:06:11.968Z,9.05
2023-02-05T17:08:41.088Z,7.28
2023-02-05T17:11:27.802Z,5.82
2023-02-05T17:14:12.556Z,7.82
2023-02-05T17:16:42.248Z,7.18
2023-02-05T17:19:27.383Z,6.30
2023-02-05T17:22:18.588Z,12.13
2023-02-05T17:24:48.237Z,8.60
2023-02-05T17:27:18.273Z,12.65
2023-02-05T17:29:47.170Z,14.00
2023-02-05T17:32:17.357Z,7.88
2023-02-05T17:34:47.059Z,8.82
2023-02-05T17:37:15.849Z,19.23
2023-02-05T17:39:43.962Z,12.10
2023-02-05T17:42:20.820Z,13.85
2023-02-05T17:44:49.292Z,21.38
2023-02-05T17:47:17.442Z,7.73
2023-02-05T17:49:47.692Z,8.30
2023-02-05T17:52:16.394Z,8.55
2023-02-05T17:54:45.327Z,8.75
2023-02-05T17:57:17.793Z,9.25
2023-02-05T17:59:46.093Z,6.97
2023-02-05T18:02:14.989Z,9.20
2023-02-05T18:04:44.769Z,8.52
2023-02-05T18:07:20.773Z,11.18
2023-02-05T18:09:48.874Z,23.92
2023-02-05T18:12:16.945Z,31.90
2023-02-05T18:14:44.987Z,45.40
2023-02-05T18:17:13.085Z,92.63
2023-02-05T18:19:41.147Z,128.32
2023-02-05T18:22:09.373Z,137.73
2023-02-05T18:24:39.216Z,137.10
2023-02-05T18:27:08.576Z,124.50
2023-02-05T18:29:37.066Z,106.07
2023-02-05T18:32:05.973Z,79.93
2023-02-05T18:34:34.409Z,54.42
2023-02-05T18:37:02.475Z,50.50
2023-02-05T18:39:30.639Z,55.25
2023-02-05T18:42:00.643Z,46.38
2023-02-05T18:44:28.817Z,35.05
2023-02-05T18:46:56.861Z,39.20
2023-02-05T18:49:24.956Z,36.75
2023-02-05T18:51:52.980Z,38.53
2023-02-05T18:54:21.057Z,35.92
2023-02-05T18:56:49.142Z,40.03
2023-02-05T18:59:21.296Z,41.17
2023-02-05T19:01:49.906Z,44.75
2023-02-05T19:04:19.388Z,33.45
2023-02-05T19:06:52.142Z,33.38
2023-02-05T19:09:21.509Z,21.77
2023-02-05T19:14:21.991Z,14.60
2023-02-05T19:16:51.408Z,13.63
2023-02-05T19:21:53.401Z,10.32
2023-02-05T19:24:22.514Z,10.82
2023-02-05T19:26:51.217Z,14.50
2023-02-05T19:29:21.465Z,6.15
2023-02-05T19:31:50.298Z,11.18
2023-02-05T19:34:18.370Z,14.45
2023-02-05T19:36:46.809Z,19.20
2023-02-05T19:39:15.596Z,15.53
2023-02-05T19:41:45.562Z,25.58
2023-02-05T19:44:13.836Z,34.58
2023-02-05T19:46:45.149Z,29.58
2023-02-05T19:49:15.413Z,21.67
2023-02-05T19:51:45.793Z,21.27
2023-02-05T19:54:14.935Z,23.42
2023-02-05T19:56:43.507Z,17.48
2023-02-05T19:59:11.856Z,18.15
2023-02-05T20:01:43.720Z,17.67
2023-02-05T20:04:17.253Z,16.50
2023-02-05T20:06:47.256Z,15.88
2023-02-05T20:09:17.302Z,19.95
2023-02-05T20:11:46.953Z,16.85
2023-02-05T20:14:16.564Z,11.35
2023-02-05T20:16:45.653Z,14.02
2023-02-05T20:19:17.493Z,15.55
2023-02-05T20:21:46.171Z,18.70
2023-02-05T20:24:16.205Z,22.90
2023-02-05T20:26:44.641Z,19.67
2023-02-05T20:29:30.253Z,21.23
2023-02-05T20:32:00.509Z,20.23
2023-02-05T20:34:33.335Z,32.70
2023-02-05T20:37:05.271Z,33.10
2023-02-05T20:39:35.271Z,29.08
2023-02-05T20:42:03.503Z,21.63
2023-02-05T20:44:36.068Z,21.52
2023-02-05T20:47:04.198Z,15.63
2023-02-05T20:49:35.580Z,13.95
2023-02-05T20:52:03.725Z,16.90
2023-02-05T20:54:32.027Z,17.15
2023-02-05T20:57:00.175Z,24.08
2023-02-05T20:59:28.629Z,25.98
2023-02-05T21:01:56.895Z,24.40
2023-02-05T21:04:25.545Z,24.10
2023-02-05T21:06:55.028Z,23.02
2023-02-05T21:09:23.384Z,25.17
2023-02-05T21:11:55.250Z,16.70
2023-02-05T21:14:23.527Z,25.35
2023-02-05T21:16:51.616Z,19.20
2023-02-05T21:19:19.855Z,21.35
2023-02-05T21:21:49.745Z,20.13
2023-02-05T21:24:20.649Z,24.73
2023-02-05T21:26:50.078Z,19.33
2023-02-05T21:29:19.889Z,20.77
2023-02-05T21:31:50.024Z,30.35
2023-02-05T21:34:21.629Z,29.45
2023-02-05T21:36:50.396Z,30.02
2023-02-05T21:39:20.284Z,19.88
2023-02-05T21:41:50.508Z,32.47
2023-02-05T21:44:18.945Z,23.75
2023-02-05T21:46:47.045Z,22.53
2023-02-05T21:49:15.141Z,22.63
2023-02-05T21:51:43.437Z,26.63
2023-02-05T21:54:12.287Z,24.47
2023-02-05T21:56:43.544Z,25.08
2023-02-05T21:59:12.726Z,20.17
2023-02-05T22:01:40.953Z,33.78
2023-02-05T22:04:12.232Z,18.45
2023-02-05T22:06:40.987Z,21.05
2023-02-05T22:09:11.265Z,12.90
2023-02-05T22:11:40.472Z,17.98
2023-02-05T22:14:11.541Z,13.43
2023-02-05T22:16:40.064Z,18.03
2023-02-05T22:19:08.884Z,21.17
2023-02-05T22:21:39.192Z,20.80
2023-02-05T22:24:08.813Z,24.17
2023-02-05T22:26:38.866Z,21.17
2023-02-05T22:29:10.083Z,17.23
2023-02-05T22:31:38.274Z,14.70
2023-02-05T22:34:06.758Z,17.83
2023-02-05T22:36:36.229Z,16.85
2023-02-05T22:39:05.506Z,13.75
2023-02-05T22:44:03.955Z,12.20
2023-02-05T22:46:35.298Z,9.87
2023-02-05T22:49:04.356Z,12.80
2023-02-05T22:51:35.309Z,10.15
2023-02-05T22:54:04.006Z,13.93
2023-02-05T22:56:32.694Z,11.65
2023-02-05T22:59:03.094Z,12.88
2023-02-05T23:01:34.648Z,11.40
2023-02-05T23:04:04.977Z,10.03
2023-02-05T23:06:35.251Z,10.50
2023-02-05T23:09:06.222Z,11.73
2023-02-05T23:11:36.073Z,10.90
2023-02-05T23:14:06.139Z,12.63
2023-02-05T23:16:36.952Z,13.40
2023-02-05T23:19:07.395Z,16.33
2023-02-05T23:21:37.123Z,22.40
2023-02-05T23:24:05.960Z,25.27
2023-02-05T23:26:38.429Z,23.40
2023-02-05T23:29:06.932Z,21.57
2023-02-05T23:31:36.685Z,21.08
2023-02-05T23:34:05.324Z,23.40
2023-02-05T23:36:33.739Z,26.35
2023-02-05T23:39:01.881Z,25.05
2023-02-05T23:41:39.874Z,20.10
2023-02-05T23:44:12.104Z,18.93
2023-02-05T23:46:43.066Z,28.43
2023-02-05T23:49:11.636Z,23.43
2023-02-05T23:51:40.323Z,27.77
2023-02-05T23:54:09.968Z,25.70
2023-02-05T23:56:38.289Z,18.60
2023-02-05T23:59:07.060Z,16.03
